River Oaks, Texas
Current Conditions -  °F | °C
As of 6:52 AM on Saturday 20 Dec 2014 (Local Time) from KNFW Reporting Station
Overcast Overcast  
Wind Chill: 49°   Ceiling: 1800
Heat Index: 49°   Visibility: 10mi
Dew Point: 39°   Wind: 0mph
Humidity: 69%   Direction: NA
Pressure: 30.28"   Gusts: NA
Location:  32.7763°N, 97.4092°W
Report Text: KNFW 201252Z 00000KT 10SM OVC018 09/04 A3028 RMK AO2 SLP235 T00940039
Loading
Personal Weather Stations






























Interactive Weather Map New forecast layout! Learn more

10-Day Weather Forecast

Advertisements
Track Severe Weather on mobile